createdAt,value
2022-12-19T00:00:04.479Z,20.31
2022-12-19T00:02:36.644Z,20.31
2022-12-19T00:05:07.952Z,20.30
2022-12-19T00:07:38.122Z,20.29
2022-12-19T00:10:09.433Z,20.26
2022-12-19T00:12:39.501Z,20.27
2022-12-19T00:15:10.478Z,20.26
2022-12-19T00:17:40.629Z,20.24
2022-12-19T00:20:11.763Z,20.22
2022-12-19T00:22:43.615Z,20.24
2022-12-19T00:25:13.798Z,20.22
2022-12-19T00:27:44.598Z,20.20
2022-12-19T00:30:14.993Z,20.20
2022-12-19T00:32:45.614Z,20.19
2022-12-19T00:35:16.185Z,20.18
2022-12-19T00:37:49.506Z,20.17
2022-12-19T00:40:18.522Z,20.15
2022-12-19T00:42:53.558Z,20.15
2022-12-19T00:45:20.995Z,20.14
2022-12-19T00:47:51.145Z,20.13
2022-12-19T00:50:21.324Z,20.12
2022-12-19T00:52:51.415Z,20.12
2022-12-19T00:55:21.604Z,20.03
2022-12-19T00:57:51.761Z,20.10
2022-12-19T01:00:23.886Z,20.10
2022-12-19T01:02:54.279Z,20.08
2022-12-19T01:05:25.181Z,20.08
2022-12-19T01:07:55.702Z,20.06
2022-12-19T01:10:25.876Z,20.06
2022-12-19T01:12:55.954Z,20.07
2022-12-19T01:15:26.172Z,20.06
2022-12-19T01:17:56.302Z,20.07
2022-12-19T01:20:29.796Z,20.03
2022-12-19T01:23:00.243Z,20.04
2022-12-19T01:25:31.435Z,20.04
2022-12-19T01:28:01.564Z,20.01
2022-12-19T01:30:31.995Z,20.02
2022-12-19T01:33:02.941Z,20.01
2022-12-19T01:35:33.036Z,20.00
2022-12-19T01:38:07.826Z,19.99
2022-12-19T01:40:35.932Z,20.00
2022-12-19T01:43:06.576Z,20.00
2022-12-19T01:45:45.114Z,19.98
2022-12-19T01:48:36.842Z,19.99
2022-12-19T01:51:10.131Z,19.98
2022-12-19T01:53:48.702Z,19.96
2022-12-19T01:56:15.854Z,19.96
2022-12-19T01:58:48.747Z,19.95
2022-12-19T02:01:20.230Z,19.95
2022-12-19T02:03:51.828Z,19.94
2022-12-19T02:06:23.402Z,19.94
2022-12-19T02:08:54.438Z,19.93
2022-12-19T02:11:24.813Z,19.93
2022-12-19T02:13:55.502Z,19.93
2022-12-19T02:16:31.843Z,19.93
2022-12-19T02:19:21.819Z,19.92
2022-12-19T02:21:57.814Z,19.89
2022-12-19T02:24:36.524Z,19.89
2022-12-19T02:27:26.321Z,19.88
2022-12-19T02:30:11.925Z,19.89
2022-12-19T02:32:56.879Z,19.87
2022-12-19T02:35:33.214Z,19.86
2022-12-19T02:38:15.515Z,19.86
2022-12-19T02:41:07.044Z,19.86
2022-12-19T02:43:40.329Z,19.84
2022-12-19T02:46:12.349Z,19.83
2022-12-19T02:48:43.118Z,19.81
2022-12-19T02:51:13.249Z,19.80
2022-12-19T02:53:44.133Z,19.80
2022-12-19T02:56:17.459Z,19.80
2022-12-19T02:59:11.750Z,19.80
2022-12-19T03:01:54.292Z,19.79
2022-12-19T03:04:36.539Z,19.78
2022-12-19T03:07:44.537Z,19.78
2022-12-19T03:10:26.798Z,19.75
2022-12-19T03:13:05.641Z,19.74
2022-12-19T03:15:36.818Z,19.69
2022-12-19T03:18:07.455Z,19.73
2022-12-19T03:20:57.891Z,19.74
2022-12-19T03:23:30.072Z,19.71
2022-12-19T03:26:08.875Z,19.73
2022-12-19T03:28:50.811Z,19.70
2022-12-19T03:31:26.862Z,19.71
2022-12-19T03:34:00.368Z,19.70
2022-12-19T03:36:33.544Z,19.69
2022-12-19T03:39:06.650Z,19.68
2022-12-19T03:41:57.997Z,19.69
2022-12-19T03:44:31.231Z,19.67
2022-12-19T03:47:10.434Z,19.67
2022-12-19T03:49:41.596Z,19.66
2022-12-19T03:52:27.216Z,19.65
2022-12-19T03:55:15.655Z,19.66
2022-12-19T03:57:49.002Z,19.65
2022-12-19T04:00:21.430Z,19.62
2022-12-19T04:02:54.631Z,19.62
2022-12-19T04:05:29.755Z,19.61
2022-12-19T04:08:05.599Z,19.61
2022-12-19T04:10:38.935Z,19.58
2022-12-19T04:13:12.256Z,19.58
2022-12-19T04:15:48.531Z,19.56
2022-12-19T04:18:21.202Z,19.56
2022-12-19T04:20:54.331Z,19.55
2022-12-19T04:23:42.815Z,19.54
2022-12-19T04:26:14.777Z,19.52
2022-12-19T04:28:50.910Z,19.52
2022-12-19T04:31:22.174Z,19.53
2022-12-19T04:33:52.493Z,19.52
2022-12-19T04:36:22.970Z,19.51
2022-12-19T04:38:53.708Z,19.48
2022-12-19T04:41:24.067Z,19.49
2022-12-19T04:43:54.245Z,19.46
2022-12-19T04:46:24.433Z,19.45
2022-12-19T04:48:54.681Z,19.45
2022-12-19T04:51:25.098Z,19.42
2022-12-19T04:53:55.249Z,19.41
2022-12-19T04:56:25.469Z,19.39
2022-12-19T04:59:00.746Z,19.38
2022-12-19T05:01:31.303Z,19.39
2022-12-19T05:04:04.633Z,19.37
2022-12-19T05:06:33.759Z,19.36
2022-12-19T05:09:04.041Z,19.36
2022-12-19T05:11:34.438Z,19.32
2022-12-19T05:14:04.880Z,19.33
2022-12-19T05:16:35.089Z,19.30
2022-12-19T05:19:05.527Z,19.30
2022-12-19T05:21:35.725Z,19.29
2022-12-19T05:24:06.562Z,19.26
2022-12-19T05:26:37.507Z,19.26
2022-12-19T05:29:08.736Z,19.25
2022-12-19T05:31:38.942Z,19.24
2022-12-19T05:34:09.263Z,19.23
2022-12-19T05:36:39.451Z,19.22
2022-12-19T05:39:09.589Z,19.21
2022-12-19T05:41:39.791Z,19.20
2022-12-19T05:44:11.554Z,19.18
2022-12-19T05:46:42.059Z,19.19
2022-12-19T05:49:12.404Z,19.19
2022-12-19T05:51:42.695Z,19.17
2022-12-19T05:54:12.936Z,19.17
2022-12-19T05:56:43.068Z,19.17
2022-12-19T05:59:13.558Z,19.16
2022-12-19T06:01:44.024Z,19.16
2022-12-19T06:04:14.309Z,19.14
2022-12-19T06:06:44.725Z,19.14
2022-12-19T06:09:14.929Z,19.15
2022-12-19T06:11:45.150Z,19.13
2022-12-19T06:14:15.448Z,19.15
2022-12-19T06:16:45.759Z,19.13
2022-12-19T06:19:16.407Z,19.14
2022-12-19T06:21:48.493Z,19.12
2022-12-19T06:24:18.700Z,19.12
2022-12-19T06:26:48.901Z,19.13
2022-12-19T06:29:19.183Z,19.12
2022-12-19T06:31:49.527Z,19.13
2022-12-19T06:34:39.842Z,19.12
2022-12-19T06:36:52.140Z,19.10
2022-12-19T06:39:22.756Z,19.13
2022-12-19T06:42:10.732Z,19.13
2022-12-19T06:44:41.074Z,18.68
2022-12-19T06:47:11.323Z,17.55
2022-12-19T06:49:41.700Z,16.55
2022-12-19T06:52:11.914Z,15.62
2022-12-19T06:54:42.598Z,14.89
2022-12-19T06:57:13.037Z,14.26
2022-12-19T06:59:43.494Z,13.86
2022-12-19T07:02:19.682Z,14.00
2022-12-19T07:04:55.792Z,14.36
2022-12-19T07:07:25.972Z,14.81
2022-12-19T07:09:56.226Z,15.24
2022-12-19T07:12:26.799Z,15.63
2022-12-19T07:14:57.084Z,15.96
2022-12-19T07:17:29.421Z,16.20
2022-12-19T07:20:00.198Z,16.43
2022-12-19T07:22:33.435Z,16.60
2022-12-19T07:25:06.239Z,16.77
2022-12-19T07:27:37.262Z,16.92
2022-12-19T07:30:08.784Z,17.01
2022-12-19T07:32:39.642Z,17.08
2022-12-19T07:35:10.917Z,17.22
2022-12-19T07:37:40.995Z,17.32
2022-12-19T07:40:14.482Z,17.42
2022-12-19T07:42:45.397Z,17.54
2022-12-19T07:45:15.718Z,17.65
2022-12-19T07:47:45.953Z,17.77
2022-12-19T07:50:16.331Z,17.88
2022-12-19T07:52:46.944Z,17.97
2022-12-19T07:55:17.407Z,18.08
2022-12-19T07:57:47.637Z,18.16
2022-12-19T08:00:18.463Z,18.23
2022-12-19T08:02:48.835Z,18.31
2022-12-19T08:05:19.719Z,18.37
2022-12-19T08:07:49.878Z,18.42
2022-12-19T08:10:22.309Z,18.49
2022-12-19T08:12:52.966Z,18.54
2022-12-19T08:15:23.117Z,18.63
2022-12-19T08:17:54.873Z,18.72
2022-12-19T08:20:25.283Z,18.80
2022-12-19T08:22:55.419Z,18.86
2022-12-19T08:25:25.780Z,18.93
2022-12-19T08:27:55.935Z,19.01
2022-12-19T08:30:26.133Z,19.08
2022-12-19T08:32:56.473Z,19.11
2022-12-19T08:35:26.714Z,18.52
2022-12-19T08:37:56.870Z,17.38
2022-12-19T08:40:27.168Z,16.31
2022-12-19T08:42:57.461Z,15.47
2022-12-19T08:45:27.617Z,14.86
2022-12-19T08:47:57.850Z,14.41
2022-12-19T08:50:28.352Z,13.98
2022-12-19T08:52:58.509Z,13.65
2022-12-19T08:55:29.035Z,13.35
2022-12-19T08:57:59.213Z,13.14
2022-12-19T09:00:31.361Z,13.00
2022-12-19T09:03:01.885Z,12.86
2022-12-19T09:06:01.422Z,12.80
2022-12-19T09:08:04.895Z,12.79
2022-12-19T09:10:39.838Z,12.73
2022-12-19T09:13:10.031Z,12.71
2022-12-19T09:15:41.137Z,12.72
2022-12-19T09:18:12.509Z,12.70
2022-12-19T09:20:43.103Z,12.67
2022-12-19T09:23:13.387Z,12.66
2022-12-19T09:25:43.625Z,12.61
2022-12-19T09:28:29.494Z,12.57
2022-12-19T09:30:46.747Z,12.53
2022-12-19T09:33:19.869Z,12.43
2022-12-19T09:35:56.633Z,12.36
2022-12-19T09:38:27.589Z,12.34
2022-12-19T09:41:00.820Z,12.33
2022-12-19T09:43:39.618Z,12.31
2022-12-19T09:46:18.292Z,12.36
2022-12-19T09:48:55.003Z,12.95
2022-12-19T09:51:52.286Z,13.89
2022-12-19T09:54:25.434Z,14.75
2022-12-19T09:56:58.773Z,15.59
2022-12-19T09:59:49.878Z,16.23
2022-12-19T10:02:23.429Z,16.79
2022-12-19T10:05:07.729Z,17.31
2022-12-19T10:07:56.331Z,17.74
2022-12-19T10:12:34.743Z,18.11
2022-12-19T10:12:55.826Z,18.43
2022-12-19T10:15:39.344Z,18.72
2022-12-19T10:18:28.209Z,19.01
2022-12-19T10:21:05.271Z,19.22
2022-12-19T10:24:00.828Z,19.45
2022-12-19T10:26:37.118Z,19.77
2022-12-19T10:29:19.161Z,19.77
2022-12-19T10:32:13.142Z,19.97
2022-12-19T10:34:45.448Z,20.12
2022-12-19T10:37:35.090Z,20.29
2022-12-19T10:40:17.617Z,20.44
2022-12-19T10:42:51.732Z,20.57
2022-12-19T10:45:24.177Z,20.72
2022-12-19T10:47:58.887Z,20.84
2022-12-19T10:50:30.843Z,20.96
2022-12-19T10:53:11.360Z,21.08
2022-12-19T10:55:50.187Z,21.21
2022-12-19T10:58:26.430Z,21.35
2022-12-19T11:01:05.579Z,21.49
2022-12-19T11:03:36.972Z,21.61
2022-12-19T11:06:07.757Z,21.76
2022-12-19T11:08:38.545Z,21.91
2022-12-19T11:14:49.904Z,22.09
2022-12-19T11:19:15.086Z,22.29
2022-12-19T11:20:38.164Z,22.47
2022-12-19T11:29:18.921Z,22.68
2022-12-19T11:29:19.697Z,22.96
2022-12-19T11:30:42.811Z,23.26
2022-12-19T11:30:46.260Z,23.61
2022-12-19T11:32:36.480Z,24.38
2022-12-19T11:34:36.213Z,24.74
2022-12-19T11:37:27.831Z,25.27
2022-12-19T11:40:28.359Z,25.84
2022-12-19T11:43:43.066Z,26.41
2022-12-19T11:46:05.357Z,26.96
2022-12-19T11:49:08.387Z,27.38
2022-12-19T11:51:59.382Z,27.72
2022-12-19T11:54:35.656Z,27.97
2022-12-19T11:57:05.247Z,28.17
2022-12-19T11:59:41.071Z,28.32
2022-12-19T12:02:45.886Z,28.42
2022-12-19T12:05:41.595Z,28.57
2022-12-19T12:09:36.084Z,28.67
2022-12-19T12:15:09.349Z,28.47
2022-12-19T12:22:48.692Z,28.32
2022-12-19T12:26:11.528Z,28.34
2022-12-19T12:31:15.837Z,28.39
2022-12-19T12:31:27.785Z,28.37
2022-12-19T12:31:46.586Z,28.43
2022-12-19T12:31:46.813Z,28.43
2022-12-19T12:31:54.266Z,28.45
2022-12-19T12:35:54.535Z,28.46
2022-12-19T12:38:29.856Z,28.39
2022-12-19T12:41:20.411Z,28.37
2022-12-19T12:43:54.494Z,28.31
2022-12-19T12:46:42.451Z,28.21
2022-12-19T12:49:36.386Z,28.10
2022-12-19T12:52:09.491Z,27.43
2022-12-19T12:54:42.778Z,25.68
2022-12-19T12:57:30.204Z,24.05
2022-12-19T13:00:20.352Z,23.19
2022-12-19T13:03:13.600Z,23.13
2022-12-19T13:06:07.708Z,23.33
2022-12-19T13:08:46.439Z,23.50
2022-12-19T13:11:40.608Z,23.68
2022-12-19T13:14:38.248Z,23.77
2022-12-19T13:17:14.126Z,23.83
2022-12-19T13:20:04.768Z,23.84
2022-12-19T13:22:40.862Z,23.81
2022-12-19T13:25:30.754Z,23.76
2022-12-19T13:28:10.739Z,23.73
2022-12-19T13:31:20.835Z,23.65
2022-12-19T13:33:55.995Z,23.59
2022-12-19T13:39:49.599Z,23.49
2022-12-19T13:39:58.317Z,23.40
2022-12-19T13:42:33.579Z,23.29
2022-12-19T13:45:12.511Z,23.17
2022-12-19T13:47:45.976Z,23.05
2022-12-19T13:50:25.079Z,22.97
2022-12-19T13:52:55.414Z,22.87
2022-12-19T13:55:27.823Z,22.78
2022-12-19T13:57:58.848Z,22.70
2022-12-19T14:00:40.960Z,22.61
2022-12-19T14:03:14.327Z,22.51
2022-12-19T14:06:18.586Z,22.42
2022-12-19T14:08:23.088Z,22.32
2022-12-19T14:11:30.666Z,22.23
2022-12-19T14:14:16.352Z,22.13
2022-12-19T14:16:45.132Z,22.01
2022-12-19T14:19:25.773Z,21.91
2022-12-19T14:22:05.276Z,21.82
2022-12-19T14:24:29.879Z,21.72
2022-12-19T14:28:20.908Z,21.66
2022-12-19T14:30:28.971Z,21.59
2022-12-19T14:33:40.034Z,21.52
2022-12-19T14:36:04.872Z,21.48
2022-12-19T14:38:03.032Z,21.42
2022-12-19T14:40:07.732Z,21.36
2022-12-19T14:43:57.246Z,21.32
2022-12-19T14:54:10.726Z,21.32
2022-12-19T14:54:15.602Z,21.36
2022-12-19T14:54:21.095Z,21.49
2022-12-19T14:55:18.567Z,21.56
2022-12-19T14:57:01.759Z,21.58
2022-12-19T14:59:37.759Z,21.53
2022-12-19T15:02:11.368Z,21.49
2022-12-19T15:04:53.434Z,21.45
2022-12-19T15:07:22.194Z,21.41
2022-12-19T15:11:03.774Z,21.36
2022-12-19T15:16:34.777Z,21.26
2022-12-19T15:19:07.998Z,21.26
2022-12-19T15:21:38.135Z,21.20
2022-12-19T15:24:09.422Z,21.17
2022-12-19T15:26:42.543Z,21.14
2022-12-19T15:29:19.811Z,21.13
2022-12-19T15:31:47.068Z,21.09
2022-12-19T15:34:35.512Z,21.09
2022-12-19T15:36:58.876Z,21.08
2022-12-19T15:39:30.986Z,21.06
2022-12-19T15:42:02.633Z,21.03
2022-12-19T15:44:43.263Z,21.02
2022-12-19T15:47:34.993Z,20.99
2022-12-19T15:50:17.368Z,21.01
2022-12-19T15:52:48.011Z,20.98
2022-12-19T15:55:19.875Z,20.96
2022-12-19T15:57:55.835Z,20.96
2022-12-19T16:00:29.089Z,20.94
2022-12-19T16:05:31.729Z,20.92
2022-12-19T16:08:01.924Z,20.90
2022-12-19T16:10:35.224Z,20.88
2022-12-19T16:13:05.528Z,20.85
2022-12-19T16:15:40.773Z,20.83
2022-12-19T16:18:14.135Z,20.77
2022-12-19T16:20:44.705Z,20.72
2022-12-19T16:23:17.490Z,20.69
2022-12-19T16:25:53.683Z,20.67
2022-12-19T16:28:34.192Z,20.62
2022-12-19T16:31:07.526Z,20.60
2022-12-19T16:33:37.848Z,20.57
2022-12-19T16:36:09.651Z,20.54
2022-12-19T16:38:39.896Z,20.53
2022-12-19T16:41:18.821Z,20.51
2022-12-19T16:43:49.202Z,20.50
2022-12-19T16:46:22.255Z,20.49
2022-12-19T16:48:52.775Z,20.51
2022-12-19T16:51:25.931Z,20.48
2022-12-19T16:53:59.845Z,20.49
2022-12-19T16:56:35.819Z,20.51
2022-12-19T16:59:09.642Z,20.52
2022-12-19T17:01:40.531Z,20.55
2022-12-19T17:04:13.991Z,20.55
2022-12-19T17:06:44.620Z,20.57
2022-12-19T17:09:19.941Z,20.57
2022-12-19T17:11:53.158Z,20.58
2022-12-19T17:14:26.265Z,20.59
2022-12-19T17:17:00.787Z,20.61
2022-12-19T17:19:37.183Z,20.61
2022-12-19T17:22:15.452Z,20.59
2022-12-19T17:24:47.908Z,20.59
2022-12-19T17:27:19.367Z,20.60
2022-12-19T17:29:49.577Z,20.63
2022-12-19T17:32:24.195Z,20.68
2022-12-19T17:34:53.019Z,20.72
2022-12-19T17:37:23.450Z,20.77
2022-12-19T17:39:54.950Z,20.79
2022-12-19T17:42:27.911Z,20.82
2022-12-19T17:44:58.582Z,20.82
2022-12-19T17:47:30.370Z,20.80
2022-12-19T17:50:00.958Z,20.79
2022-12-19T17:52:34.201Z,20.77
2022-12-19T17:55:17.048Z,20.77
2022-12-19T17:57:47.362Z,20.76
2022-12-19T18:00:22.841Z,20.77
2022-12-19T18:02:57.640Z,20.75
2022-12-19T18:05:31.122Z,20.75
2022-12-19T18:08:01.507Z,20.75
2022-12-19T18:10:33.030Z,20.76
2022-12-19T18:13:04.409Z,20.75
2022-12-19T18:15:35.329Z,20.74
2022-12-19T18:18:05.874Z,20.72
2022-12-19T18:20:36.235Z,20.72
2022-12-19T18:23:09.371Z,20.72
2022-12-19T18:25:39.738Z,20.71
2022-12-19T18:28:09.943Z,20.69
2022-12-19T18:30:41.021Z,20.70
2022-12-19T18:33:23.268Z,20.71
2022-12-19T18:35:53.497Z,20.69
2022-12-19T18:38:25.037Z,20.69
2022-12-19T18:40:55.217Z,20.69
2022-12-19T18:43:26.032Z,20.70
2022-12-19T18:45:56.413Z,20.70
2022-12-19T18:48:29.091Z,20.69
2022-12-19T18:51:00.825Z,20.67
2022-12-19T18:53:36.028Z,20.68
2022-12-19T18:56:07.724Z,20.67
2022-12-19T18:58:38.480Z,20.67
2022-12-19T19:01:14.443Z,20.67
2022-12-19T19:03:47.611Z,20.66
2022-12-19T19:06:24.404Z,20.66
2022-12-19T19:08:56.404Z,20.64
2022-12-19T19:11:27.808Z,20.64
2022-12-19T19:13:58.021Z,20.63
2022-12-19T19:16:28.854Z,20.65
2022-12-19T19:19:01.055Z,20.62
2022-12-19T19:21:34.229Z,20.63
2022-12-19T19:24:10.637Z,20.63
2022-12-19T19:26:40.260Z,20.64
2022-12-19T19:29:11.013Z,20.65
2022-12-19T19:31:44.078Z,20.63
2022-12-19T19:34:23.179Z,20.62
2022-12-19T19:36:56.324Z,20.61
2022-12-19T19:39:27.952Z,20.61
2022-12-19T19:41:58.328Z,20.61
2022-12-19T19:44:29.883Z,20.58
2022-12-19T19:47:00.340Z,20.61
2022-12-19T19:49:30.651Z,20.61
2022-12-19T19:52:03.083Z,20.59
2022-12-19T19:54:33.383Z,20.62
2022-12-19T19:57:03.929Z,20.61
2022-12-19T19:59:34.182Z,20.62
2022-12-19T20:02:04.611Z,20.62
2022-12-19T20:04:36.359Z,20.61
2022-12-19T20:07:07.313Z,20.62
2022-12-19T20:09:37.787Z,20.61
2022-12-19T20:12:08.389Z,20.61
2022-12-19T20:14:38.695Z,20.60
2022-12-19T20:17:09.096Z,20.61
2022-12-19T20:19:40.153Z,20.61
2022-12-19T20:22:10.558Z,20.60
2022-12-19T20:24:41.070Z,20.62
2022-12-19T20:27:11.704Z,20.61
2022-12-19T20:29:42.174Z,20.61
2022-12-19T20:32:14.238Z,20.60
2022-12-19T20:34:44.446Z,20.61
2022-12-19T20:37:15.512Z,20.61
2022-12-19T20:39:45.668Z,20.60
2022-12-19T20:42:16.159Z,20.60
2022-12-19T20:44:46.720Z,20.61
2022-12-19T20:47:17.926Z,20.61
2022-12-19T20:49:48.670Z,20.61
2022-12-19T20:52:20.551Z,20.61
2022-12-19T20:54:51.080Z,20.61
2022-12-19T20:57:21.601Z,20.62
2022-12-19T20:59:52.547Z,20.63
2022-12-19T21:02:23.022Z,20.64
2022-12-19T21:04:53.604Z,20.62
2022-12-19T21:07:24.710Z,20.64
2022-12-19T21:09:55.240Z,20.63
2022-12-19T21:12:25.579Z,20.64
2022-12-19T21:14:55.735Z,20.64
2022-12-19T21:17:26.061Z,20.63
2022-12-19T21:19:56.586Z,20.62
2022-12-19T21:22:26.884Z,20.61
2022-12-19T21:24:57.007Z,20.62
2022-12-19T21:27:27.352Z,20.62
2022-12-19T21:29:57.662Z,20.61
2022-12-19T21:32:28.643Z,20.61
2022-12-19T21:34:59.011Z,20.62
2022-12-19T21:37:31.074Z,20.61
2022-12-19T21:40:01.384Z,20.59
2022-12-19T21:42:31.876Z,20.62
2022-12-19T21:45:02.104Z,20.63
2022-12-19T21:47:32.371Z,20.61
2022-12-19T21:50:02.784Z,20.61
2022-12-19T21:52:33.275Z,20.62
2022-12-19T21:55:03.980Z,20.59
2022-12-19T21:57:36.215Z,20.60
2022-12-19T22:00:07.851Z,20.61
2022-12-19T22:02:38.718Z,20.61
2022-12-19T22:05:09.508Z,20.59
2022-12-19T22:07:39.691Z,20.60
2022-12-19T22:10:10.906Z,20.61
2022-12-19T22:12:41.080Z,20.61
2022-12-19T22:15:11.529Z,20.61
2022-12-19T22:17:43.539Z,20.61
2022-12-19T22:20:13.884Z,20.63
2022-12-19T22:22:44.030Z,20.61
2022-12-19T22:25:14.352Z,20.61
2022-12-19T22:27:44.651Z,20.61
2022-12-19T22:30:35.603Z,20.61
2022-12-19T22:33:06.326Z,20.62
2022-12-19T22:35:36.540Z,20.62
2022-12-19T22:38:06.729Z,20.62
2022-12-19T22:40:36.780Z,20.64
2022-12-19T22:43:06.898Z,20.63
2022-12-19T22:45:37.217Z,20.62
2022-12-19T22:48:07.931Z,20.62
2022-12-19T22:50:38.097Z,20.62
2022-12-19T22:53:12.731Z,20.60
2022-12-19T22:55:40.090Z,20.61
2022-12-19T22:58:10.422Z,20.63
2022-12-19T23:00:40.576Z,20.62
2022-12-19T23:03:10.920Z,20.63
2022-12-19T23:05:42.709Z,20.62
2022-12-19T23:08:13.131Z,20.61
2022-12-19T23:10:43.419Z,20.61
2022-12-19T23:13:13.584Z,20.61
2022-12-19T23:15:43.861Z,20.62
2022-12-19T23:18:14.091Z,20.62
2022-12-19T23:20:44.781Z,20.62
2022-12-19T23:23:15.547Z,20.65
2022-12-19T23:25:45.686Z,20.67
2022-12-19T23:28:15.772Z,20.66
2022-12-19T23:30:46.061Z,20.68
2022-12-19T23:33:16.187Z,20.69
2022-12-19T23:35:46.473Z,20.68
2022-12-19T23:38:16.669Z,20.70
2022-12-19T23:40:46.929Z,20.71
2022-12-19T23:43:17.313Z,20.72
2022-12-19T23:45:47.757Z,20.74
2022-12-19T23:48:18.077Z,20.75
2022-12-19T23:50:48.230Z,20.75
2022-12-19T23:53:18.352Z,20.73
2022-12-19T23:55:51.632Z,20.75
2022-12-19T23:58:24.929Z,20.76
